createdAt,value
2022-11-01T16:13:15.487Z,26.52
2022-11-01T16:15:41.773Z,14.55
2022-11-01T16:18:08.034Z,17.88
2022-11-01T16:20:34.440Z,17.00
2022-11-01T16:23:00.688Z,18.35
2022-11-01T16:25:27.665Z,17.23
2022-11-01T16:27:54.661Z,19.90
2022-11-01T16:30:20.846Z,21.57
2022-11-01T16:32:47.106Z,18.63
2022-11-01T16:35:13.357Z,16.10
2022-11-01T16:37:39.648Z,18.63
2022-11-01T16:40:06.243Z,16.65
2022-11-01T16:42:33.313Z,15.65
2022-11-01T16:44:59.571Z,17.08
2022-11-01T16:47:25.891Z,34.63
2022-11-01T16:49:52.221Z,22.33
2022-11-01T16:52:18.486Z,24.05
2022-11-01T16:54:44.844Z,23.35
2022-11-01T16:57:11.199Z,28.55
2022-11-01T16:59:37.962Z,32.78
2022-11-01T17:02:04.341Z,18.98
2022-11-01T17:04:30.742Z,21.45
2022-11-01T17:07:00.007Z,20.77
2022-11-01T17:09:27.238Z,17.27
2022-11-01T17:11:54.368Z,18.73
2022-11-01T17:14:21.082Z,20.40
2022-11-01T17:16:48.075Z,19.05
2022-11-01T17:19:14.454Z,19.48
2022-11-01T17:21:40.964Z,21.67
2022-11-01T17:24:07.225Z,24.33
2022-11-01T17:26:33.481Z,23.17
2022-11-01T17:28:59.749Z,21.95
2022-11-01T17:31:26.235Z,21.65
2022-11-01T17:33:52.487Z,19.17
2022-11-01T17:36:18.785Z,15.02
2022-11-01T17:38:45.032Z,16.20
2022-11-01T17:41:11.298Z,24.75
2022-11-01T17:43:37.636Z,29.75
2022-11-01T17:46:04.687Z,36.47
2022-11-01T17:48:31.040Z,26.98
2022-11-01T17:50:57.299Z,21.08
2022-11-01T17:53:23.580Z,31.40
2022-11-01T17:55:49.843Z,18.70
2022-11-01T18:01:07.391Z,23.85
2022-11-01T18:03:33.955Z,24.00
2022-11-01T18:06:00.276Z,20.02
2022-11-01T18:08:26.831Z,20.27
2022-11-01T18:10:53.079Z,17.85
2022-11-01T18:13:19.336Z,15.63
2022-11-01T18:15:45.741Z,17.58
2022-11-01T18:18:12.166Z,20.17
2022-11-01T18:20:38.770Z,22.15
2022-11-01T18:23:05.068Z,21.00
2022-11-01T18:25:31.390Z,22.65
2022-11-01T18:27:57.655Z,24.85
2022-11-01T18:31:33.461Z,27.40
2022-11-01T18:33:59.748Z,22.58
2022-11-01T18:55:34.550Z,17.83
2022-11-01T18:58:01.038Z,18.30
2022-11-01T19:00:27.563Z,20.55
2022-11-01T19:02:58.675Z,23.77
2022-11-01T19:05:25.802Z,30.60
2022-11-01T19:10:39.302Z,28.20
2022-11-01T19:13:05.709Z,26.65
2022-11-01T19:15:31.992Z,26.75
2022-11-01T19:17:58.301Z,26.92
2022-11-01T19:20:25.169Z,26.75
2022-11-01T19:22:51.442Z,25.67
2022-11-01T19:25:17.719Z,31.27
2022-11-01T19:27:44.005Z,30.45
2022-11-01T19:30:10.358Z,27.95
2022-11-01T19:32:36.619Z,28.13
2022-11-01T19:35:02.871Z,30.75
2022-11-01T19:37:31.814Z,31.25
2022-11-01T19:40:01.195Z,34.13
2022-11-01T19:42:27.522Z,27.10
2022-11-01T19:44:53.778Z,29.35
2022-11-01T19:47:20.055Z,27.33
2022-11-01T19:49:46.314Z,30.35
2022-11-01T19:52:13.132Z,31.15
2022-11-01T19:54:39.385Z,30.20
2022-11-01T19:57:05.643Z,31.20
2022-11-01T19:59:31.908Z,26.20
2022-11-01T20:01:58.922Z,27.77
2022-11-01T20:04:27.909Z,30.60
2022-11-01T20:06:55.129Z,32.25
2022-11-01T20:09:21.418Z,34.33
2022-11-01T20:11:47.670Z,31.95
2022-11-01T20:14:13.924Z,30.77
2022-11-01T20:16:40.251Z,34.67
2022-11-01T20:19:06.510Z,31.85
2022-11-01T20:21:33.275Z,35.55
2022-11-01T20:23:59.922Z,29.42
2022-11-01T20:26:26.205Z,33.22
2022-11-01T20:28:52.488Z,34.17
2022-11-01T20:34:11.886Z,35.42
2022-11-01T20:36:38.639Z,45.10
2022-11-01T20:39:04.920Z,43.25
2022-11-01T20:41:31.236Z,38.67
2022-11-01T20:43:57.481Z,36.45
2022-11-01T20:46:25.764Z,38.78
2022-11-01T20:48:52.009Z,40.17
2022-11-01T20:51:18.320Z,37.17
2022-11-01T20:53:44.572Z,33.72
2022-11-01T20:56:10.864Z,35.15
2022-11-01T20:58:43.890Z,39.78
2022-11-01T21:01:10.267Z,40.00
2022-11-01T21:03:36.569Z,44.17
2022-11-01T21:06:02.897Z,38.58
2022-11-01T21:08:30.364Z,41.88
2022-11-01T21:10:57.391Z,38.60
2022-11-01T21:13:23.721Z,37.10
2022-11-01T21:15:49.989Z,34.13
2022-11-01T21:18:17.485Z,36.67
2022-11-01T21:20:43.742Z,34.20
2022-11-01T21:23:10.069Z,32.97
2022-11-01T21:25:36.317Z,38.85
2022-11-01T21:28:02.782Z,43.50
2022-11-01T21:30:29.275Z,35.60
2022-11-01T21:32:55.558Z,34.75
2022-11-01T21:35:21.818Z,36.05
2022-11-01T21:37:48.234Z,34.17
2022-11-01T21:40:14.785Z,33.67
2022-11-01T21:42:41.153Z,33.70
2022-11-01T21:45:07.426Z,35.78
2022-11-01T21:47:36.757Z,32.35
2022-11-01T21:50:03.006Z,34.40
2022-11-01T21:52:29.604Z,31.90
2022-11-01T21:54:55.977Z,33.00
2022-11-01T21:57:22.238Z,30.67
2022-11-01T21:59:48.509Z,36.45
2022-11-01T22:02:15.088Z,40.38
2022-11-01T22:04:44.744Z,38.85
2022-11-01T22:07:11.061Z,30.35
2022-11-01T22:09:37.877Z,29.38
2022-11-01T22:12:04.190Z,27.95
2022-11-01T22:14:30.493Z,30.45
2022-11-01T22:16:56.899Z,32.80
2022-11-01T22:19:23.258Z,35.28
2022-11-01T22:21:49.612Z,34.28
2022-11-01T22:24:15.931Z,29.83
2022-11-01T22:26:42.199Z,30.33
2022-11-01T22:29:08.525Z,29.92
2022-11-01T22:31:34.783Z,33.85
2022-11-01T22:34:01.028Z,28.48
2022-11-01T22:36:27.309Z,33.53
2022-11-01T22:38:53.562Z,32.00
2022-11-01T22:41:19.808Z,29.10
2022-11-01T22:43:46.201Z,28.33
2022-11-01T22:46:12.448Z,31.23
2022-11-01T22:48:38.695Z,29.20
2022-11-01T22:51:04.962Z,27.05
2022-11-01T22:53:31.213Z,29.50
2022-11-01T22:55:57.646Z,30.08
2022-11-01T22:58:23.901Z,31.45
2022-11-01T23:00:50.361Z,29.67
2022-11-01T23:03:16.600Z,28.45
2022-11-01T23:05:43.318Z,26.98
2022-11-01T23:08:09.570Z,25.70
2022-11-01T23:10:35.850Z,29.70
2022-11-01T23:13:20.577Z,26.58
2022-11-01T23:15:46.868Z,27.40
2022-11-01T23:18:13.117Z,26.10
2022-11-01T23:20:40.073Z,25.77
2022-11-01T23:23:06.738Z,27.15
2022-11-01T23:25:33.639Z,26.38
2022-11-01T23:27:59.898Z,26.35
2022-11-01T23:30:26.316Z,25.88
2022-11-01T23:32:52.600Z,31.75
2022-11-01T23:35:18.912Z,27.08
2022-11-01T23:37:45.212Z,30.67
2022-11-01T23:40:11.480Z,34.58
2022-11-01T23:42:37.737Z,31.45
2022-11-01T23:45:06.164Z,31.35
2022-11-01T23:47:33.397Z,33.30
2022-11-01T23:49:59.649Z,29.92
2022-11-01T23:52:25.910Z,28.70
2022-11-01T23:54:52.161Z,27.45
2022-11-01T23:57:18.418Z,27.08
2022-11-01T23:59:44.672Z,29.92
